LZIB/BTS METAR and TAF weather

Enter ICAO airport designator
Station Type Date Time Source
LZIB METAR 2022/10/01 09:00 UTC NOAA

LZIB 010900Z 31003KT 280V350 9999 FEW009 SCT014 BKN039 15/13 Q1014 NOSIG


Station Type Date Time Source
LZIB Decoded METAR 2022/10/01 09:00 UTC NOAA

Bratislava Ivanka, Slovakia (LZIB) 48-12N 017-12E 142M
Oct 01, 2022 - 05:00 AM EDT / 2022.10.01 0900 UTC
Wind: from the NW (310 degrees) at 3 MPH (3 KT) (direction variable):0
Visibility: greater than 7 mile(s):0
Sky conditions: mostly cloudy
Temperature: 59 F (15 C)
Dew Point: 55 F (13 C)
Relative Humidity: 87%
Pressure (altimeter): 29.94 in. Hg (1014 hPa)
ob: LZIB 010900Z 31003KT 280V350 9999 FEW009 SCT014 BKN039 15/13 Q1014 NOSIG
cycle: 9

Station Type Date Time Source
LZIB TAF 2022/10/01 06:06 UTC NOAA

TAF LZIB 010515Z 0106/0206 01005KT 9999 SCT010 BKN030
TEMPO 0106/0112 3000 RA BR BKN003 OVC005
BECMG 0107/0109 28009KT PROB40
TEMPO 0110/0115 SHRA SCT015 SCT030
BECMG 0120/0122 30015G25KT SCT040

Example: see airport list